Terminal Aerodrome Forecast
Issued by NWS

Home | Current Version | Previous Version | Text Only | Print | Product List | Glossary On
Versions: 1 2 3 4 5 6 7 8 9 10 11 12 13 14 15 16 17 18 19
000
FTUS42 KTBW 180800 AAC
TAFPGD
TAF AMD
KPGD 180837Z 1809/1906 09010KT P6SM SCT007 BKN015
      TEMPO 1809/1810 BKN008
     FM181000 09009KT P6SM FEW007 SCT010 BKN025
     FM181400 13010KT P6SM VCSH SCT015 BKN025
     FM181700 16014G22KT P6SM VCTS SCT020CB BKN035
     FM182000 20016G24KT P6SM VCTS SCT025CB BKN050
     FM190200 18009KT P6SM VCSH SCT010 BKN035=

USA.gov is the U.S. government's official web portal to all federal, state and local government web resources and services.